UTA114 USHI-USHH
Flight info
| Callsign | UTA114 |
|---|---|
| Flight time | 0h 56m |
| Altitude | 11000 |
| Route | N0240F110 BULOM W253 SORLI B228 TUNAB |
| Aircraft | AN24/M-I/L |
Departure
| Time | 2026-04-19 08:49 |
|---|---|
| Airport | Igrim Airport (USHI) |
Arrival
| Time | 2026-04-19 09:45 |
|---|---|
| Airport | Khanty Mansiysk Airport (USHH) |
| Time | Latitude | Longitude | Altitude | Speed | Heading |
|---|---|---|---|---|---|
| 2026-04-19 08:19 | 63.20014 | 64.43469 | 81 ft | 0 kts | 163° |
| 2026-04-19 08:42 | 63.19989 | 64.43499 | 81 ft | 5 kts | 117° |
| 2026-04-19 08:42 | 63.19991 | 64.43553 | 80 ft | 0 kts | 72° |
| 2026-04-19 08:42 | 63.19994 | 64.43570 | 81 ft | 6 kts | 73° |
| 2026-04-19 08:43 | 63.20008 | 64.43660 | 80 ft | 10 kts | 71° |
| 2026-04-19 08:43 | 63.20026 | 64.43786 | 80 ft | 2 kts | 73° |
| 2026-04-19 08:43 | 63.20027 | 64.43790 | 79 ft | 0 kts | 73° |
| 2026-04-19 08:44 | 63.20033 | 64.43834 | 79 ft | 11 kts | 74° |
| 2026-04-19 08:44 | 63.20042 | 64.43916 | 78 ft | 8 kts | 79° |
| 2026-04-19 08:44 | 63.20014 | 64.44010 | 78 ft | 14 kts | 156° |
| 2026-04-19 08:45 | 63.19833 | 64.44157 | 79 ft | 36 kts | 160° |
| 2026-04-19 08:45 | 63.19627 | 64.44307 | 80 ft | 30 kts | 163° |
| 2026-04-19 08:45 | 63.19408 | 64.44438 | 81 ft | 34 kts | 166° |
| 2026-04-19 08:45 | 63.19167 | 64.44559 | 81 ft | 33 kts | 169° |
| 2026-04-19 08:46 | 63.19011 | 64.44624 | 81 ft | 14 kts | 169° |
| 2026-04-19 08:46 | 63.18948 | 64.44661 | 81 ft | 5 kts | 136° |
| 2026-04-19 08:46 | 63.18972 | 64.44700 | 81 ft | 6 kts | 340° |
| 2026-04-19 08:46 | 63.19002 | 64.44682 | 81 ft | 0 kts | 347° |
| 2026-04-19 08:47 | 63.19007 | 64.44679 | 81 ft | 4 kts | 347° |
| 2026-04-19 08:47 | 63.19048 | 64.44655 | 81 ft | 0 kts | 343° |
| 2026-04-19 08:47 | 63.19048 | 64.44654 | 81 ft | 0 kts | 343° |
| 2026-04-19 08:48 | 63.19131 | 64.44595 | 81 ft | 39 kts | 345° |
| 2026-04-19 08:48 | 63.19589 | 64.44272 | 81 ft | 95 kts | 344° |
| 2026-04-19 08:48 | 63.20322 | 64.43752 | 198 ft | 120 kts | 346° |
| 2026-04-19 08:48 | 63.21162 | 64.43206 | 459 ft | 133 kts | 347° |
| 2026-04-19 08:49 | 63.22089 | 64.42601 | 673 ft | 149 kts | 346° |
| 2026-04-19 08:49 | 63.23161 | 64.41947 | 841 ft | 168 kts | 348° |
| 2026-04-19 08:49 | 63.24308 | 64.41048 | 1004 ft | 185 kts | 332° |
| 2026-04-19 08:49 | 63.25241 | 64.39043 | 1310 ft | 190 kts | 305° |
| 2026-04-19 08:50 | 63.25686 | 64.36367 | 1818 ft | 182 kts | 279° |
| 2026-04-19 08:50 | 63.25568 | 64.33593 | 2064 ft | 186 kts | 251° |
| 2026-04-19 08:50 | 63.24945 | 64.31087 | 2372 ft | 185 kts | 226° |
| 2026-04-19 08:50 | 63.23904 | 64.29524 | 2658 ft | 183 kts | 197° |
| 2026-04-19 08:51 | 63.22666 | 64.29271 | 2907 ft | 181 kts | 168° |
| 2026-04-19 08:51 | 63.21884 | 64.29868 | 3117 ft | 177 kts | 148° |
| 2026-04-19 08:51 | 63.20803 | 64.32439 | 3578 ft | 170 kts | 121° |
| 2026-04-19 08:51 | 63.20204 | 64.34606 | 4008 ft | 163 kts | 118° |
| 2026-04-19 08:52 | 63.19623 | 64.36813 | 4211 ft | 171 kts | 118° |
| 2026-04-19 08:52 | 63.19016 | 64.39105 | 4465 ft | 173 kts | 117° |
| 2026-04-19 08:52 | 63.18467 | 64.41433 | 4812 ft | 170 kts | 115° |
| 2026-04-19 08:52 | 63.17934 | 64.43771 | 5080 ft | 172 kts | 115° |
| 2026-04-19 08:53 | 63.17378 | 64.46094 | 5368 ft | 173 kts | 120° |
| 2026-04-19 08:53 | 63.16740 | 64.48333 | 5656 ft | 173 kts | 121° |
| 2026-04-19 08:53 | 63.16296 | 64.49834 | 5829 ft | 174 kts | 121° |
| 2026-04-19 08:53 | 63.15355 | 64.52708 | 6193 ft | 176 kts | 131° |
| 2026-04-19 08:54 | 63.14507 | 64.54689 | 6451 ft | 178 kts | 131° |
| 2026-04-19 08:54 | 63.13675 | 64.56649 | 6784 ft | 175 kts | 131° |
| 2026-04-19 08:54 | 63.12814 | 64.58587 | 7040 ft | 177 kts | 134° |
| 2026-04-19 08:54 | 63.12226 | 64.59842 | 7182 ft | 180 kts | 134° |
| 2026-04-19 08:55 | 63.11052 | 64.62408 | 7598 ft | 177 kts | 133° |
| 2026-04-19 08:55 | 63.10189 | 64.64365 | 7831 ft | 180 kts | 132° |
| 2026-04-19 08:55 | 63.09323 | 64.66356 | 8075 ft | 181 kts | 133° |
| 2026-04-19 08:55 | 63.08445 | 64.68374 | 8321 ft | 182 kts | 133° |
| 2026-04-19 08:56 | 63.07572 | 64.70380 | 8565 ft | 183 kts | 133° |
| 2026-04-19 08:56 | 63.06698 | 64.72387 | 8808 ft | 184 kts | 133° |
| 2026-04-19 08:56 | 63.05803 | 64.74435 | 9049 ft | 185 kts | 133° |
| 2026-04-19 08:56 | 63.04914 | 64.76473 | 9285 ft | 186 kts | 133° |
| 2026-04-19 08:57 | 63.04014 | 64.78535 | 9519 ft | 187 kts | 133° |
| 2026-04-19 08:57 | 63.03114 | 64.80592 | 9753 ft | 188 kts | 133° |
| 2026-04-19 08:57 | 63.02202 | 64.82671 | 9989 ft | 189 kts | 133° |
| 2026-04-19 08:57 | 63.01291 | 64.84752 | 10204 ft | 192 kts | 133° |
| 2026-04-19 08:58 | 63.00358 | 64.86878 | 10302 ft | 199 kts | 133° |
| 2026-04-19 08:58 | 62.99699 | 64.88382 | 10347 ft | 205 kts | 133° |
| 2026-04-19 08:58 | 62.98346 | 64.91460 | 10360 ft | 214 kts | 133° |
| 2026-04-19 08:58 | 62.97303 | 64.93831 | 10365 ft | 218 kts | 133° |
| 2026-04-19 08:59 | 62.96256 | 64.96189 | 10352 ft | 220 kts | 134° |
| 2026-04-19 08:59 | 62.95166 | 64.98582 | 10357 ft | 222 kts | 134° |
| 2026-04-19 08:59 | 62.94069 | 65.00979 | 10347 ft | 225 kts | 134° |
| 2026-04-19 08:59 | 62.92960 | 65.03401 | 10364 ft | 225 kts | 134° |
| 2026-04-19 09:00 | 62.91851 | 65.05818 | 10356 ft | 227 kts | 134° |
| 2026-04-19 09:00 | 62.90731 | 65.08261 | 10339 ft | 228 kts | 134° |
| 2026-04-19 09:00 | 62.89607 | 65.10709 | 10354 ft | 228 kts | 134° |
| 2026-04-19 09:00 | 62.88845 | 65.12363 | 10345 ft | 229 kts | 134° |
| 2026-04-19 09:01 | 62.87344 | 65.15626 | 10390 ft | 227 kts | 134° |
| 2026-04-19 09:01 | 62.86244 | 65.18009 | 10586 ft | 219 kts | 134° |
| 2026-04-19 09:01 | 62.85194 | 65.20280 | 10792 ft | 213 kts | 134° |
| 2026-04-19 09:01 | 62.84149 | 65.22542 | 10967 ft | 209 kts | 134° |
| 2026-04-19 09:02 | 62.83119 | 65.24771 | 11120 ft | 207 kts | 134° |
| 2026-04-19 09:02 | 62.82101 | 65.26967 | 11256 ft | 206 kts | 134° |
| 2026-04-19 09:02 | 62.81087 | 65.29154 | 11392 ft | 206 kts | 134° |
| 2026-04-19 09:02 | 62.80052 | 65.31387 | 11411 ft | 212 kts | 134° |
| 2026-04-19 09:03 | 62.78992 | 65.33669 | 11338 ft | 220 kts | 134° |
| 2026-04-19 09:03 | 62.77893 | 65.36034 | 11309 ft | 224 kts | 134° |
| 2026-04-19 09:03 | 62.76783 | 65.38417 | 11355 ft | 225 kts | 134° |
| 2026-04-19 09:03 | 62.75656 | 65.40839 | 11367 ft | 227 kts | 134° |
| 2026-04-19 09:04 | 62.74535 | 65.43238 | 11380 ft | 228 kts | 135° |
| 2026-04-19 09:04 | 62.73408 | 65.45651 | 11356 ft | 230 kts | 134° |
| 2026-04-19 09:04 | 62.72268 | 65.48090 | 11365 ft | 230 kts | 134° |
| 2026-04-19 09:04 | 62.71125 | 65.50528 | 11370 ft | 231 kts | 134° |
| 2026-04-19 09:05 | 62.69975 | 65.52985 | 11361 ft | 232 kts | 134° |
| 2026-04-19 09:05 | 62.68832 | 65.55420 | 11354 ft | 233 kts | 134° |
| 2026-04-19 09:05 | 62.67664 | 65.57906 | 11369 ft | 232 kts | 134° |
| 2026-04-19 09:05 | 62.66509 | 65.60363 | 11360 ft | 233 kts | 134° |
| 2026-04-19 09:06 | 62.65346 | 65.62832 | 11359 ft | 233 kts | 134° |
| 2026-04-19 09:06 | 62.64189 | 65.65286 | 11377 ft | 233 kts | 135° |
| 2026-04-19 09:06 | 62.63033 | 65.67735 | 11354 ft | 234 kts | 135° |
| 2026-04-19 09:06 | 62.62262 | 65.69366 | 11352 ft | 234 kts | 135° |
| 2026-04-19 09:07 | 62.60698 | 65.72675 | 11354 ft | 234 kts | 135° |
| 2026-04-19 09:07 | 62.59550 | 65.75098 | 11366 ft | 234 kts | 135° |
| 2026-04-19 09:07 | 62.58390 | 65.77570 | 11344 ft | 235 kts | 134° |
| 2026-04-19 09:07 | 62.57240 | 65.80074 | 11353 ft | 234 kts | 134° |
| 2026-04-19 09:08 | 62.56092 | 65.82574 | 11355 ft | 234 kts | 134° |
| 2026-04-19 09:08 | 62.54939 | 65.85081 | 11339 ft | 234 kts | 134° |
| 2026-04-19 09:08 | 62.53788 | 65.87585 | 11354 ft | 234 kts | 134° |
| 2026-04-19 09:08 | 62.52650 | 65.90055 | 11336 ft | 235 kts | 134° |
| 2026-04-19 09:09 | 62.51493 | 65.92564 | 11353 ft | 234 kts | 134° |
| 2026-04-19 09:09 | 62.50351 | 65.95041 | 11346 ft | 234 kts | 134° |
| 2026-04-19 09:09 | 62.49196 | 65.97538 | 11335 ft | 235 kts | 134° |
| 2026-04-19 09:09 | 62.48041 | 66.00037 | 11353 ft | 234 kts | 134° |
| 2026-04-19 09:10 | 62.46906 | 66.02483 | 11338 ft | 234 kts | 134° |
| 2026-04-19 09:10 | 62.45840 | 66.05165 | 11367 ft | 232 kts | 126° |
| 2026-04-19 09:10 | 62.44904 | 66.07949 | 11343 ft | 234 kts | 124° |
| 2026-04-19 09:10 | 62.43962 | 66.10837 | 11266 ft | 237 kts | 124° |
| 2026-04-19 09:11 | 62.43021 | 66.13721 | 11362 ft | 232 kts | 124° |
| 2026-04-19 09:11 | 62.42090 | 66.16568 | 11373 ft | 233 kts | 123° |
| 2026-04-19 09:11 | 62.41157 | 66.19422 | 11294 ft | 236 kts | 124° |
| 2026-04-19 09:11 | 62.40217 | 66.22289 | 11352 ft | 233 kts | 124° |
| 2026-04-19 09:12 | 62.39288 | 66.25120 | 11401 ft | 231 kts | 124° |
| 2026-04-19 09:12 | 62.38348 | 66.27985 | 11323 ft | 235 kts | 124° |
| 2026-04-19 09:12 | 62.37410 | 66.30834 | 11330 ft | 234 kts | 124° |
| 2026-04-19 09:12 | 62.36476 | 66.33666 | 11411 ft | 231 kts | 124° |
| 2026-04-19 09:13 | 62.35535 | 66.36521 | 11346 ft | 235 kts | 124° |
| 2026-04-19 09:13 | 62.34600 | 66.39352 | 11322 ft | 235 kts | 124° |
| 2026-04-19 09:13 | 62.33651 | 66.42222 | 11396 ft | 232 kts | 124° |
| 2026-04-19 09:13 | 62.32725 | 66.45023 | 11380 ft | 233 kts | 124° |
| 2026-04-19 09:14 | 62.31769 | 66.47903 | 11307 ft | 236 kts | 124° |
| 2026-04-19 09:14 | 62.30833 | 66.50727 | 11387 ft | 232 kts | 124° |
| 2026-04-19 09:14 | 62.29895 | 66.53547 | 11401 ft | 233 kts | 124° |
| 2026-04-19 09:14 | 62.28949 | 66.56394 | 11312 ft | 237 kts | 124° |
| 2026-04-19 09:15 | 62.27988 | 66.59280 | 11365 ft | 234 kts | 124° |
| 2026-04-19 09:15 | 62.27056 | 66.62073 | 11407 ft | 233 kts | 124° |
| 2026-04-19 09:15 | 62.25169 | 66.67842 | 11337 ft | 235 kts | 124° |
| 2026-04-19 09:16 | 62.24254 | 66.70682 | 11411 ft | 232 kts | 124° |
| 2026-04-19 09:16 | 62.23321 | 66.73569 | 11333 ft | 236 kts | 124° |
| 2026-04-19 09:16 | 62.22386 | 66.76465 | 11311 ft | 237 kts | 124° |
| 2026-04-19 09:16 | 62.21465 | 66.79307 | 11390 ft | 233 kts | 124° |
| 2026-04-19 09:17 | 62.20541 | 66.82159 | 11356 ft | 235 kts | 124° |
| 2026-04-19 09:17 | 62.19920 | 66.84072 | 11304 ft | 237 kts | 124° |
| 2026-04-19 09:17 | 62.18973 | 66.86932 | 11350 ft | 234 kts | 125° |
| 2026-04-19 09:17 | 62.18024 | 66.89741 | 11398 ft | 232 kts | 125° |
| 2026-04-19 09:18 | 62.16748 | 66.93525 | 11289 ft | 237 kts | 124° |
| 2026-04-19 09:18 | 62.15791 | 66.96350 | 11363 ft | 233 kts | 124° |
| 2026-04-19 09:18 | 62.15161 | 66.98211 | 11397 ft | 232 kts | 124° |
| 2026-04-19 09:18 | 62.13887 | 67.01968 | 11316 ft | 237 kts | 124° |
| 2026-04-19 09:19 | 62.12921 | 67.04812 | 11337 ft | 235 kts | 124° |
| 2026-04-19 09:19 | 62.11976 | 67.07589 | 11409 ft | 232 kts | 124° |
| 2026-04-19 09:19 | 62.11019 | 67.10400 | 11339 ft | 236 kts | 124° |
| 2026-04-19 09:19 | 62.10377 | 67.12286 | 11305 ft | 238 kts | 124° |
| 2026-04-19 09:20 | 62.09101 | 67.16024 | 11394 ft | 234 kts | 124° |
| 2026-04-19 09:20 | 62.08139 | 67.18838 | 11369 ft | 236 kts | 124° |
| 2026-04-19 09:20 | 62.07496 | 67.20718 | 11318 ft | 238 kts | 124° |
| 2026-04-19 09:20 | 62.06525 | 67.23556 | 11354 ft | 236 kts | 124° |
| 2026-04-19 09:21 | 62.05244 | 67.27290 | 11399 ft | 235 kts | 124° |
| 2026-04-19 09:21 | 62.04268 | 67.30134 | 11314 ft | 238 kts | 124° |
| 2026-04-19 09:21 | 62.03298 | 67.32951 | 11356 ft | 236 kts | 124° |
| 2026-04-19 09:21 | 62.02663 | 67.34797 | 11398 ft | 234 kts | 124° |
| 2026-04-19 09:22 | 62.01379 | 67.38536 | 11317 ft | 238 kts | 124° |
| 2026-04-19 09:22 | 62.00414 | 67.41415 | 11314 ft | 237 kts | 123° |
| 2026-04-19 09:22 | 61.99467 | 67.44263 | 11388 ft | 234 kts | 123° |
| 2026-04-19 09:22 | 61.98530 | 67.47072 | 11343 ft | 237 kts | 123° |
| 2026-04-19 09:23 | 61.97895 | 67.48974 | 11294 ft | 239 kts | 123° |
| 2026-04-19 09:23 | 61.96629 | 67.52760 | 11377 ft | 235 kts | 123° |
| 2026-04-19 09:23 | 61.95678 | 67.55599 | 11368 ft | 236 kts | 124° |
| 2026-04-19 09:23 | 61.95041 | 67.57466 | 11313 ft | 238 kts | 124° |
| 2026-04-19 09:24 | 61.93726 | 67.61250 | 11351 ft | 236 kts | 124° |
| 2026-04-19 09:24 | 61.93085 | 67.63088 | 11402 ft | 234 kts | 124° |
| 2026-04-19 09:24 | 61.91786 | 67.66818 | 11298 ft | 239 kts | 125° |
| 2026-04-19 09:24 | 61.90791 | 67.69666 | 11318 ft | 238 kts | 126° |
| 2026-04-19 09:25 | 61.90144 | 67.71513 | 11385 ft | 235 kts | 126° |
| 2026-04-19 09:25 | 61.88842 | 67.75236 | 11323 ft | 239 kts | 126° |
| 2026-04-19 09:25 | 61.87848 | 67.78072 | 11301 ft | 239 kts | 126° |
| 2026-04-19 09:25 | 61.87192 | 67.79940 | 11368 ft | 236 kts | 126° |
| 2026-04-19 09:26 | 61.85886 | 67.83656 | 11337 ft | 237 kts | 126° |
| 2026-04-19 09:26 | 61.84900 | 67.86458 | 11290 ft | 239 kts | 126° |
| 2026-04-19 09:26 | 61.83916 | 67.89248 | 11383 ft | 235 kts | 126° |
| 2026-04-19 09:26 | 61.82941 | 67.92012 | 11384 ft | 235 kts | 126° |
| 2026-04-19 09:27 | 61.81957 | 67.94799 | 11304 ft | 239 kts | 125° |
| 2026-04-19 09:27 | 61.80981 | 67.97558 | 11374 ft | 235 kts | 125° |
| 2026-04-19 09:27 | 61.80000 | 68.00325 | 11417 ft | 234 kts | 125° |
| 2026-04-19 09:27 | 61.79348 | 68.02168 | 11364 ft | 237 kts | 125° |
| 2026-04-19 09:28 | 61.78024 | 68.05899 | 11353 ft | 238 kts | 126° |
| 2026-04-19 09:28 | 61.77040 | 68.08659 | 11414 ft | 235 kts | 126° |
| 2026-04-19 09:28 | 61.75874 | 68.11108 | 11369 ft | 238 kts | 143° |
| 2026-04-19 09:28 | 61.74957 | 68.12369 | 11365 ft | 239 kts | 148° |
| 2026-04-19 09:29 | 61.73027 | 68.14730 | 11281 ft | 242 kts | 149° |
| 2026-04-19 09:29 | 61.71599 | 68.16470 | 11356 ft | 238 kts | 149° |
| 2026-04-19 09:29 | 61.70181 | 68.18194 | 11387 ft | 237 kts | 149° |
| 2026-04-19 09:29 | 61.69216 | 68.19367 | 11315 ft | 240 kts | 149° |
| 2026-04-19 09:30 | 61.67773 | 68.21123 | 11300 ft | 240 kts | 149° |
| 2026-04-19 09:30 | 61.65869 | 68.23430 | 11389 ft | 237 kts | 149° |
| 2026-04-19 09:30 | 61.64421 | 68.25185 | 11319 ft | 240 kts | 149° |
| 2026-04-19 09:30 | 61.62977 | 68.26930 | 11307 ft | 240 kts | 149° |
| 2026-04-19 09:31 | 61.61553 | 68.28652 | 11393 ft | 236 kts | 149° |
| 2026-04-19 09:31 | 61.60130 | 68.30369 | 11343 ft | 239 kts | 149° |
| 2026-04-19 09:31 | 61.58691 | 68.32107 | 11298 ft | 241 kts | 149° |
| 2026-04-19 09:31 | 61.57252 | 68.33839 | 11387 ft | 237 kts | 149° |
| 2026-04-19 09:32 | 61.55826 | 68.35555 | 11376 ft | 238 kts | 149° |
| 2026-04-19 09:32 | 61.54385 | 68.37293 | 11302 ft | 241 kts | 149° |
| 2026-04-19 09:32 | 61.52939 | 68.39041 | 11363 ft | 238 kts | 149° |
| 2026-04-19 09:32 | 61.51517 | 68.40755 | 11400 ft | 236 kts | 149° |
| 2026-04-19 09:33 | 61.50084 | 68.42479 | 11302 ft | 241 kts | 149° |
| 2026-04-19 09:33 | 61.48633 | 68.44226 | 11336 ft | 239 kts | 149° |
| 2026-04-19 09:33 | 61.47219 | 68.45922 | 11392 ft | 236 kts | 149° |
| 2026-04-19 09:33 | 61.45787 | 68.47652 | 11319 ft | 240 kts | 149° |
| 2026-04-19 09:34 | 61.44350 | 68.49425 | 11314 ft | 239 kts | 148° |
| 2026-04-19 09:34 | 61.42929 | 68.51183 | 11394 ft | 236 kts | 148° |
| 2026-04-19 09:34 | 61.41518 | 68.52923 | 11333 ft | 239 kts | 148° |
| 2026-04-19 09:34 | 61.40589 | 68.54072 | 11204 ft | 231 kts | 148° |
| 2026-04-19 09:35 | 61.38738 | 68.56301 | 10466 ft | 234 kts | 149° |
| 2026-04-19 09:35 | 61.37324 | 68.57991 | 9928 ft | 234 kts | 148° |
| 2026-04-19 09:35 | 61.35925 | 68.59690 | 9303 ft | 237 kts | 148° |
| 2026-04-19 09:35 | 61.34518 | 68.61373 | 8772 ft | 234 kts | 148° |
| 2026-04-19 09:36 | 61.33117 | 68.63039 | 8151 ft | 235 kts | 148° |
| 2026-04-19 09:36 | 61.32167 | 68.64140 | 7654 ft | 238 kts | 149° |
| 2026-04-19 09:36 | 61.30237 | 68.66239 | 6907 ft | 233 kts | 151° |
| 2026-04-19 09:36 | 61.28797 | 68.67737 | 6317 ft | 230 kts | 152° |
| 2026-04-19 09:37 | 61.27370 | 68.69199 | 5681 ft | 230 kts | 152° |
| 2026-04-19 09:37 | 61.25964 | 68.70673 | 5118 ft | 226 kts | 150° |
| 2026-04-19 09:37 | 61.24598 | 68.72116 | 4583 ft | 222 kts | 150° |
| 2026-04-19 09:37 | 61.23224 | 68.73518 | 3981 ft | 221 kts | 152° |
| 2026-04-19 09:38 | 61.21834 | 68.74773 | 3391 ft | 220 kts | 155° |
| 2026-04-19 09:38 | 61.20457 | 68.75975 | 3104 ft | 205 kts | 153° |
| 2026-04-19 09:38 | 61.19201 | 68.77120 | 2922 ft | 191 kts | 152° |
| 2026-04-19 09:38 | 61.18401 | 68.77870 | 2819 ft | 188 kts | 151° |
| 2026-04-19 09:39 | 61.16873 | 68.79323 | 2866 ft | 173 kts | 152° |
| 2026-04-19 09:39 | 61.15794 | 68.80309 | 2869 ft | 166 kts | 150° |
| 2026-04-19 09:39 | 61.14756 | 68.81330 | 2756 ft | 167 kts | 150° |
| 2026-04-19 09:39 | 61.13710 | 68.82411 | 2654 ft | 167 kts | 149° |
| 2026-04-19 09:40 | 61.12706 | 68.83491 | 2633 ft | 162 kts | 148° |
| 2026-04-19 09:40 | 61.11698 | 68.84589 | 2505 ft | 166 kts | 148° |
| 2026-04-19 09:40 | 61.10707 | 68.85712 | 2603 ft | 153 kts | 145° |
| 2026-04-19 09:40 | 61.09827 | 68.86768 | 2480 ft | 151 kts | 144° |
| 2026-04-19 09:41 | 61.08907 | 68.87879 | 2271 ft | 153 kts | 144° |
| 2026-04-19 09:41 | 61.08030 | 68.88950 | 2249 ft | 141 kts | 143° |
| 2026-04-19 09:41 | 61.07232 | 68.89929 | 2270 ft | 130 kts | 144° |
| 2026-04-19 09:41 | 61.06458 | 68.90890 | 2186 ft | 128 kts | 142° |
| 2026-04-19 09:42 | 61.05964 | 68.91524 | 2122 ft | 125 kts | 142° |
| 2026-04-19 09:42 | 61.05022 | 68.92848 | 1957 ft | 119 kts | 140° |
| 2026-04-19 09:42 | 61.04351 | 68.93800 | 1735 ft | 118 kts | 139° |
| 2026-04-19 09:42 | 61.03918 | 68.94462 | 1550 ft | 121 kts | 137° |
| 2026-04-19 09:43 | 61.03267 | 68.95541 | 1416 ft | 114 kts | 135° |
| 2026-04-19 09:43 | 61.02488 | 68.97008 | 1184 ft | 116 kts | 129° |
| 2026-04-19 09:43 | 61.02039 | 68.98354 | 948 ft | 114 kts | 108° |
| 2026-04-19 09:43 | 61.01909 | 68.99898 | 792 ft | 110 kts | 87° |
| 2026-04-19 09:44 | 61.01947 | 69.01487 | 625 ft | 109 kts | 81° |
| 2026-04-19 09:44 | 61.02063 | 69.02496 | 513 ft | 110 kts | 71° |
| 2026-04-19 09:44 | 61.02338 | 69.04511 | 293 ft | 110 kts | 71° |
| 2026-04-19 09:44 | 61.02521 | 69.06027 | 167 ft | 107 kts | 76° |
| 2026-04-19 09:45 | 61.02684 | 69.07302 | 137 ft | 71 kts | 75° |
| 2026-04-19 09:45 | 61.02772 | 69.07997 | 137 ft | 35 kts | 75° |
| 2026-04-19 09:45 | 61.02821 | 69.08375 | 137 ft | 20 kts | 75° |
| 2026-04-19 09:45 | 61.02856 | 69.08670 | 138 ft | 18 kts | 76° |
| 2026-04-19 09:46 | 61.02881 | 69.08849 | 138 ft | 20 kts | 72° |
| 2026-04-19 09:46 | 61.02872 | 69.09158 | 140 ft | 16 kts | 152° |
| 2026-04-19 09:46 | 61.02782 | 69.09218 | 141 ft | 11 kts | 151° |
| 2026-04-19 09:46 | 61.02727 | 69.09338 | 141 ft | 9 kts | 130° |
| 2026-04-19 09:47 | 61.02732 | 69.09500 | 141 ft | 10 kts | 76° |
| 2026-04-19 09:47 | 61.02744 | 69.09641 | 141 ft | 8 kts | 72° |
| 2026-04-19 09:47 | 61.02786 | 69.09664 | 141 ft | 0 kts | 345° |